Time;durP1;ratioP1;P1;durP2;ratioP2;P2;SDS_P1;SDS_P2;PMS_P1;PMS_P2;Temp;Humidity;BMP_temperature;BMP_pressure;BME280_temperature;BME280_humidity;BME280_pressure;Samples;Min_cycle;Max_cycle;Signal;HPM_P1;HPM_P2
2022/02/11 00:01:26;;;;;;;10.70;5.60;;;3.50;99.90;;;;;;6219676;22;20711;-79
2022/02/11 00:09:11;;;;;;;16.48;5.05;;;3.60;99.90;;;;;;6245261;22;20353;-79
2022/02/11 00:11:40;;;;;;;15.43;5.37;;;3.60;99.90;;;;;;6244531;22;20045;-79
2022/02/11 00:14:07;;;;;;;15.50;5.07;;;3.60;99.90;;;;;;6245099;22;20022;-79
2022/02/11 00:16:35;;;;;;;13.83;5.20;;;3.60;99.90;;;;;;6219427;22;20092;-79
2022/02/11 00:19:02;;;;;;;12.80;5.47;;;3.70;99.90;;;;;;6218514;22;20023;-79
2022/02/11 00:21:31;;;;;;;17.03;5.93;;;3.80;99.90;;;;;;6219008;22;20163;-79
2022/02/11 00:24:00;;;;;;;12.83;5.03;;;3.80;99.90;;;;;;6218640;22;20018;-80
2022/02/11 00:26:38;;;;;;;10.30;4.57;;;3.80;99.90;;;;;;6219720;22;20023;-80
2022/02/11 00:32:06;;;;;;;15.70;5.33;;;3.80;99.90;;;;;;6210329;22;20045;-80
2022/02/11 00:34:42;;;;;;;12.73;5.07;;;3.90;99.90;;;;;;6221004;22;20078;-80
2022/02/11 00:37:12;;;;;;;11.77;4.80;;;3.90;99.90;;;;;;6173205;22;20403;-80
2022/02/11 00:40:36;;;;;;;13.15;4.80;;;3.90;99.90;;;;;;6193969;22;20020;-80
2022/02/11 01:04:06;;;;;;;11.67;4.10;;;4.10;99.90;;;;;;6220714;22;20020;-79
2022/02/11 01:06:32;;;;;;;12.33;4.27;;;4.10;99.90;;;;;;6169275;22;20012;-80
2022/02/11 01:08:58;;;;;;;10.27;3.73;;;4.10;99.90;;;;;;6217365;22;20077;-80
2022/02/11 01:11:34;;;;;;;13.40;4.20;;;4.00;99.90;;;;;;6241073;22;20383;-80
2022/02/11 01:14:00;;;;;;;10.93;4.00;;;4.10;99.90;;;;;;6240225;22;20076;-81
2022/02/11 01:16:38;;;;;;;15.17;4.27;;;4.00;99.90;;;;;;6216737;22;20098;-80
2022/02/11 01:19:30;;;;;;;12.70;3.80;;;4.00;99.90;;;;;;6195341;22;20023;-80
2022/02/11 01:22:20;;;;;;;13.93;4.20;;;4.00;99.90;;;;;;6197799;22;20012;-79
2022/02/11 01:27:36;;;;;;;13.27;4.43;;;4.00;99.90;;;;;;6219787;22;20028;-80
2022/02/11 01:35:14;;;;;;;14.03;3.83;;;3.90;99.90;;;;;;6243749;22;20025;-80
2022/02/11 01:56:08;;;;;;;14.20;3.93;;;4.20;99.90;;;;;;6219071;22;20031;-86
2022/02/11 02:08:51;;;;;;;13.13;3.30;;;4.30;99.90;;;;;;6242097;22;20323;-82
2022/02/11 02:25:14;;;;;;;13.60;4.17;;;4.40;99.90;;;;;;6243902;22;20101;-83
2022/02/11 02:33:51;;;;;;;15.87;3.87;;;4.60;99.90;;;;;;6243806;22;20077;-82
2022/02/11 02:58:15;;;;;;;15.03;3.07;;;4.60;99.90;;;;;;6202059;22;20020;-82
2022/02/11 05:00:14;;;;;;;16.53;3.27;;;5.20;99.90;;;;;;6193836;23;20017;-80
2022/02/11 05:02:46;;;;;;;16.90;3.20;;;5.20;99.90;;;;;;6212843;23;20016;-79
2022/02/11 05:05:16;;;;;;;15.83;3.70;;;5.20;99.90;;;;;;6165437;23;20341;-79
2022/02/11 05:07:42;;;;;;;12.90;2.40;;;5.10;99.90;;;;;;6188623;23;20091;-79
2022/02/11 05:10:10;;;;;;;16.07;3.27;;;5.10;99.90;;;;;;6239813;23;20024;-79
2022/02/11 05:12:36;;;;;;;12.40;2.07;;;5.10;99.90;;;;;;6213636;23;20028;-78
2022/02/11 05:15:08;;;;;;;13.17;2.53;;;5.00;99.90;;;;;;6138180;23;20016;-77
2022/02/11 05:17:35;;;;;;;16.30;3.03;;;5.00;99.90;;;;;;6163398;23;20020;-79
2022/02/11 05:20:01;;;;;;;14.30;2.90;;;5.00;99.90;;;;;;6213274;23;20016;-78
2022/02/11 05:22:28;;;;;;;13.20;2.73;;;5.00;99.90;;;;;;6213221;23;20348;-78
2022/02/11 05:24:53;;;;;;;11.10;2.60;;;5.00;99.90;;;;;;6162140;23;20023;-79
2022/02/11 05:27:19;;;;;;;10.60;2.33;;;5.00;99.90;;;;;;6163516;23;20018;-79
2022/02/11 05:29:45;;;;;;;10.80;2.27;;;5.00;99.90;;;;;;6163420;23;20020;-79
2022/02/11 05:32:11;;;;;;;10.97;2.20;;;5.00;99.90;;;;;;6187601;23;20020;-80
2022/02/11 05:34:37;;;;;;;14.43;2.60;;;5.00;99.90;;;;;;6187650;23;20024;-79
2022/02/11 05:37:03;;;;;;;13.10;2.43;;;5.00;99.90;;;;;;6163344;23;20023;-77
2022/02/11 05:39:29;;;;;;;13.33;3.50;;;5.00;99.90;;;;;;6202839;22;20028;-79
2022/02/11 05:41:55;;;;;;;15.63;2.80;;;5.00;99.90;;;;;;6217538;22;20110;-77
2022/02/11 05:44:21;;;;;;;16.57;3.13;;;4.90;99.90;;;;;;6243232;22;20024;-74
2022/02/11 05:46:47;;;;;;;11.67;2.37;;;4.90;99.90;;;;;;6242315;22;20011;-73
2022/02/11 05:49:13;;;;;;;17.37;2.97;;;5.00;99.90;;;;;;6243844;22;20019;-80
2022/02/11 05:51:39;;;;;;;16.27;2.93;;;5.00;99.90;;;;;;6219069;22;20019;-78
2022/02/11 05:54:05;;;;;;;16.60;3.20;;;5.00;99.90;;;;;;6193736;22;20018;-77
2022/02/11 05:56:31;;;;;;;14.87;3.50;;;5.00;99.90;;;;;;6193175;22;20341;-79
2022/02/11 05:59:00;;;;;;;18.70;4.10;;;4.90;99.90;;;;;;6217945;22;20099;-74
2022/02/11 06:01:26;;;;;;;13.07;3.03;;;4.90;99.90;;;;;;6218421;22;20022;-76
2022/02/11 06:03:52;;;;;;;16.77;3.20;;;4.90;99.90;;;;;;6243132;22;20622;-80
2022/02/11 06:06:18;;;;;;;18.17;3.97;;;4.90;99.90;;;;;;6193623;22;20114;-78
2022/02/11 06:08:44;;;;;;;17.07;3.67;;;5.00;99.90;;;;;;6167206;22;20069;-80
2022/02/11 06:11:10;;;;;;;18.53;5.00;;;5.00;99.90;;;;;;6192730;22;20051;-79
2022/02/11 06:13:36;;;;;;;13.40;3.50;;;5.00;99.90;;;;;;6192386;22;20055;-81
2022/02/11 06:16:02;;;;;;;12.57;2.90;;;5.10;99.90;;;;;;6190755;22;20051;-79
2022/02/11 06:18:31;;;;;;;14.57;3.10;;;5.10;99.90;;;;;;6217624;22;20016;-74
2022/02/11 06:20:57;;;;;;;19.10;3.73;;;5.10;99.90;;;;;;6191496;22;20016;-77
2022/02/11 06:23:23;;;;;;;17.27;3.20;;;5.00;99.90;;;;;;6242026;22;20459;-75
2022/02/11 06:25:48;;;;;;;14.30;3.47;;;5.00;99.90;;;;;;6216463;22;20019;-79
2022/02/11 06:28:16;;;;;;;9.37;2.53;;;5.00;99.90;;;;;;6217446;22;20530;-74
2022/02/11 06:30:42;;;;;;;19.93;3.33;;;5.00;99.90;;;;;;6217961;22;20019;-81
2022/02/11 06:33:08;;;;;;;15.70;3.17;;;5.00;99.90;;;;;;6193013;22;20015;-81
2022/02/11 06:35:36;;;;;;;16.30;3.23;;;4.90;99.90;;;;;;6217293;22;20054;-77
2022/02/11 06:38:02;;;;;;;13.63;3.53;;;5.00;99.90;;;;;;6242509;22;20098;-79
2022/02/11 06:40:31;;;;;;;13.63;2.87;;;4.90;99.90;;;;;;6213043;23;20055;-76
2022/02/11 06:42:58;;;;;;;13.90;3.53;;;4.90;99.90;;;;;;6212200;23;20020;-79
2022/02/11 06:45:25;;;;;;;17.57;3.57;;;4.90;99.90;;;;;;6211897;23;20170;-78
2022/02/11 06:47:51;;;;;;;15.47;3.27;;;4.90;99.90;;;;;;6210707;23;20044;-73
2022/02/11 06:50:17;;;;;;;14.27;3.43;;;4.90;99.90;;;;;;6237072;23;20016;-77
2022/02/11 06:52:45;;;;;;;16.30;3.60;;;4.90;99.90;;;;;;6212049;23;20473;-78
2022/02/11 06:55:11;;;;;;;12.97;2.67;;;4.80;99.90;;;;;;6237198;23;20050;-77
2022/02/11 06:57:37;;;;;;;16.77;3.30;;;4.70;99.90;;;;;;6212138;23;20074;-77
2022/02/11 07:00:04;;;;;;;18.50;3.47;;;4.70;99.90;;;;;;6210692;23;20588;-76
2022/02/11 07:02:31;;;;;;;18.73;4.17;;;4.60;99.90;;;;;;6236256;23;20020;-76
2022/02/11 07:04:59;;;;;;;17.90;4.23;;;4.60;99.90;;;;;;6212142;23;20027;-77
2022/02/11 07:07:25;;;;;;;15.53;3.20;;;4.60;99.90;;;;;;6237399;23;20012;-77
2022/02/11 07:09:52;;;;;;;18.07;4.20;;;4.70;99.90;;;;;;6211541;23;20020;-77
2022/02/11 07:12:19;;;;;;;15.67;3.40;;;4.70;99.90;;;;;;6213704;23;20518;-78
2022/02/11 07:14:47;;;;;;;16.00;3.47;;;4.70;99.90;;;;;;6212564;23;20100;-80
2022/02/11 07:17:13;;;;;;;17.47;3.97;;;4.70;99.90;;;;;;6238994;23;20043;-79
2022/02/11 07:19:40;;;;;;;14.53;4.20;;;4.70;99.90;;;;;;6238606;23;20020;-77
2022/02/11 07:22:05;;;;;;;16.43;3.43;;;4.80;99.90;;;;;;6236926;23;20095;-78
2022/02/11 07:24:31;;;;;;;17.87;3.70;;;4.70;99.90;;;;;;6211649;23;20047;-80
2022/02/11 07:26:58;;;;;;;15.03;3.37;;;4.70;99.90;;;;;;6211032;23;20075;-78
2022/02/11 07:29:24;;;;;;;15.57;4.63;;;4.70;99.90;;;;;;6211929;23;20026;-79
2022/02/11 07:31:50;;;;;;;17.33;3.50;;;4.70;99.90;;;;;;6236358;23;20162;-78
2022/02/11 07:34:17;;;;;;;15.20;3.03;;;4.80;99.90;;;;;;6211724;23;20081;-79
2022/02/11 07:36:44;;;;;;;12.70;2.70;;;4.80;99.90;;;;;;6212700;23;20020;-77
2022/02/11 07:39:09;;;;;;;15.40;2.90;;;4.90;99.90;;;;;;6242928;22;20016;-77
2022/02/11 07:41:35;;;;;;;14.70;3.57;;;4.90;99.90;;;;;;6218861;22;20020;-80
2022/02/11 07:44:02;;;;;;;13.73;3.37;;;4.90;99.90;;;;;;6192183;22;20059;-79
2022/02/11 07:46:30;;;;;;;13.97;3.73;;;4.90;99.90;;;;;;6192962;22;20016;-78
2022/02/11 07:48:56;;;;;;;14.77;3.90;;;4.90;99.90;;;;;;6217609;22;20070;-80
2022/02/11 07:51:22;;;;;;;18.50;4.33;;;4.90;99.90;;;;;;6191446;22;20781;-78
2022/02/11 07:53:49;;;;;;;21.93;4.40;;;5.00;99.90;;;;;;6216757;22;20077;-79
2022/02/11 07:56:14;;;;;;;15.17;4.13;;;5.00;99.90;;;;;;6217956;22;20426;-79
2022/02/11 07:58:42;;;;;;;15.37;3.67;;;5.00;99.90;;;;;;6243685;22;20020;-80
2022/02/11 08:01:08;;;;;;;16.90;3.80;;;4.90;99.90;;;;;;6214034;22;20023;-79
2022/02/11 08:03:34;;;;;;;19.47;4.40;;;5.00;99.90;;;;;;6242862;22;20472;-81
2022/02/11 08:06:01;;;;;;;18.03;3.40;;;5.10;99.90;;;;;;6217647;22;20108;-74
2022/02/11 08:08:31;;;;;;;12.07;3.30;;;5.00;99.90;;;;;;6218489;22;20311;-80
2022/02/11 08:11:00;;;;;;;16.05;3.65;;;5.00;99.90;;;;;;6219197;22;20097;-78
2022/02/11 08:13:26;;;;;;;19.13;4.13;;;5.10;99.90;;;;;;6220170;22;20028;-79
2022/02/11 08:15:55;;;;;;;15.60;3.20;;;5.10;99.90;;;;;;6217874;22;20117;-80
2022/02/11 08:18:21;;;;;;;18.00;4.47;;;5.10;99.90;;;;;;6190508;22;20020;-79
2022/02/11 08:20:47;;;;;;;16.93;5.03;;;5.10;99.90;;;;;;6189517;22;20027;-79
2022/02/11 08:23:13;;;;;;;18.47;4.40;;;5.10;99.90;;;;;;6214803;22;20486;-79
2022/02/11 08:25:39;;;;;;;20.33;4.90;;;5.10;99.90;;;;;;6189623;22;20026;-79
2022/02/11 08:28:05;;;;;;;19.27;4.67;;;5.10;99.90;;;;;;6214618;22;20511;-81
2022/02/11 08:30:30;;;;;;;19.13;4.63;;;5.10;99.90;;;;;;6190427;22;20149;-77
2022/02/11 08:32:56;;;;;;;16.27;3.83;;;5.10;99.90;;;;;;6216875;22;20414;-80
2022/02/11 08:35:22;;;;;;;22.00;5.57;;;5.20;99.90;;;;;;6217123;22;20073;-78
2022/02/11 08:37:48;;;;;;;20.07;5.30;;;5.20;99.90;;;;;;6238343;22;20080;-78
2022/02/11 08:40:14;;;;;;;23.87;6.93;;;5.00;99.90;;;;;;6215707;22;20012;-80
2022/02/11 08:42:40;;;;;;;23.30;5.63;;;4.90;99.90;;;;;;6192346;22;20023;-78
2022/02/11 08:45:07;;;;;;;20.77;6.23;;;4.90;99.90;;;;;;6215471;22;20533;-80
2022/02/11 08:47:33;;;;;;;19.07;4.90;;;4.80;99.90;;;;;;6215031;22;20361;-78
2022/02/11 08:50:00;;;;;;;17.70;3.77;;;4.80;99.90;;;;;;6217538;22;20016;-77
2022/02/11 08:52:27;;;;;;;17.03;3.50;;;4.80;99.90;;;;;;6192504;22;20054;-78
2022/02/11 08:54:59;;;;;;;11.00;3.30;;;4.80;99.90;;;;;;6191707;22;20024;-79
2022/02/11 08:57:29;;;;;;;11.30;2.67;;;4.90;99.90;;;;;;6216746;22;20012;-76
2022/02/11 08:59:55;;;;;;;14.87;2.33;;;4.90;99.90;;;;;;6243177;22;20098;-77
2022/02/11 09:02:20;;;;;;;11.90;3.00;;;4.90;99.90;;;;;;6216165;22;20296;-80
2022/02/11 09:04:47;;;;;;;10.77;2.50;;;5.00;99.90;;;;;;6241372;22;20022;-80
2022/02/11 09:07:14;;;;;;;11.20;2.27;;;5.00;99.90;;;;;;6215042;22;20027;-79
2022/02/11 09:09:40;;;;;;;12.33;2.73;;;5.10;99.90;;;;;;6214415;22;20023;-80
2022/02/11 09:12:06;;;;;;;12.53;2.63;;;5.10;99.90;;;;;;6239912;22;20012;-80
2022/02/11 09:14:32;;;;;;;19.00;4.43;;;5.10;99.90;;;;;;6165463;22;20374;-81
2022/02/11 09:17:01;;;;;;;16.97;4.17;;;5.10;99.90;;;;;;6189748;22;20019;-80
2022/02/11 09:19:27;;;;;;;17.80;4.77;;;5.30;99.90;;;;;;6241358;22;20023;-81
2022/02/11 09:21:55;;;;;;;17.20;4.50;;;5.30;99.90;;;;;;6189629;22;20074;-79
2022/02/11 09:24:21;;;;;;;18.30;4.83;;;5.30;99.90;;;;;;6214984;22;20348;-78
2022/02/11 09:26:46;;;;;;;16.07;3.47;;;5.30;99.90;;;;;;6190455;22;20023;-78
2022/02/11 09:29:12;;;;;;;14.67;3.63;;;5.30;99.90;;;;;;6165785;22;20352;-76
2022/02/11 09:31:38;;;;;;;20.10;3.57;;;5.20;99.90;;;;;;6190739;22;20027;-79
2022/02/11 09:34:05;;;;;;;18.37;4.00;;;5.00;99.90;;;;;;6189656;22;20028;-77
2022/02/11 09:36:35;;;;;;;16.83;3.97;;;4.90;99.90;;;;;;6212245;22;20015;-79
2022/02/11 09:39:05;;;;;;;18.15;4.25;;;5.00;99.90;;;;;;6209248;23;20412;-77
2022/02/11 09:41:31;;;;;;;15.80;4.15;;;5.10;99.90;;;;;;6236509;23;20066;-79
2022/02/11 09:44:01;;;;;;;16.43;3.73;;;5.20;99.90;;;;;;6234975;23;20027;-83
2022/02/11 09:46:32;;;;;;;19.10;4.60;;;5.50;99.90;;;;;;6237787;23;20046;-81
2022/02/11 09:49:01;;;;;;;17.17;4.40;;;5.60;99.90;;;;;;6211716;23;20031;-81
2022/02/11 09:51:30;;;;;;;18.37;4.27;;;5.80;99.90;;;;;;6211780;23;20012;-79
2022/02/11 09:53:56;;;;;;;16.93;3.90;;;5.80;99.90;;;;;;6210984;23;20460;-80
2022/02/11 09:56:22;;;;;;;17.07;3.70;;;5.90;99.90;;;;;;6186955;23;20031;-80
2022/02/11 09:58:52;;;;;;;23.27;4.60;;;5.90;99.90;;;;;;6236022;23;20039;-81
2022/02/11 10:01:20;;;;;;;17.45;3.85;;;6.00;99.90;;;;;;6210110;23;20020;-81
2022/02/11 10:04:06;;;;;;;16.58;3.67;;;6.00;99.90;;;;;;6210645;23;20095;-80
2022/02/11 10:06:32;;;;;;;17.33;3.90;;;6.00;99.90;;;;;;6211884;23;20099;-82
2022/02/11 10:09:01;;;;;;;18.93;4.20;;;6.10;99.90;;;;;;6210353;23;20056;-81
2022/02/11 10:11:28;;;;;;;21.08;4.95;;;6.20;99.90;;;;;;6210486;23;20024;-82
2022/02/11 10:13:55;;;;;;;21.02;5.15;;;6.10;99.90;;;;;;6212567;23;20298;-81
2022/02/11 10:16:24;;;;;;;22.63;5.20;;;6.20;99.90;;;;;;6212469;23;20020;-80
2022/02/11 10:18:51;;;;;;;20.70;5.38;;;6.20;99.90;;;;;;6211512;23;20031;-80
2022/02/11 10:21:23;;;;;;;21.10;4.70;;;6.30;99.90;;;;;;6212369;23;20043;-82
2022/02/11 10:23:51;;;;;;;16.70;4.27;;;6.40;99.90;;;;;;6211496;23;20022;-79
2022/02/11 10:26:24;;;;;;;18.53;4.43;;;6.40;99.90;;;;;;6238002;23;20055;-84
2022/02/11 10:28:55;;;;;;;25.33;4.57;;;6.40;99.90;;;;;;6210426;23;20020;-81
2022/02/11 10:31:35;;;;;;;19.30;4.13;;;6.40;99.90;;;;;;6238638;23;20318;-80
2022/02/11 10:34:06;;;;;;;20.80;4.27;;;6.40;99.90;;;;;;6211229;23;20024;-82
2022/02/11 10:36:35;;;;;;;22.73;4.73;;;6.40;99.90;;;;;;6237206;23;20019;-81
2022/02/11 10:39:16;;;;;;;17.43;4.03;;;6.50;99.90;;;;;;6210978;23;20020;-82
2022/02/11 10:41:43;;;;;;;18.35;5.93;;;6.50;99.90;;;;;;6210751;23;20463;-81
2022/02/11 10:44:12;;;;;;;17.37;4.27;;;6.40;99.90;;;;;;6211536;23;20180;-83
2022/02/11 10:46:40;;;;;;;19.53;4.53;;;6.40;99.90;;;;;;6214716;23;20019;-80
2022/02/11 10:49:07;;;;;;;21.37;6.90;;;6.40;99.90;;;;;;6239677;23;20223;-81
2022/02/11 10:51:43;;;;;;;15.50;3.72;;;6.40;99.90;;;;;;6214306;23;20281;-80
2022/02/11 10:54:29;;;;;;;14.90;3.50;;;6.50;99.90;;;;;;6240888;23;20020;-83
2022/02/11 10:57:03;;;;;;;16.08;4.55;;;6.50;99.90;;;;;;6214623;23;20107;-82
2022/02/11 10:59:34;;;;;;;14.07;3.57;;;6.50;99.90;;;;;;6213674;23;20020;-82
2022/02/11 11:02:06;;;;;;;15.97;3.30;;;6.50;99.90;;;;;;6239883;23;20016;-81
2022/02/11 11:04:32;;;;;;;16.83;3.42;;;6.50;99.90;;;;;;6214431;23;20561;-82
2022/02/11 11:07:04;;;;;;;15.47;3.43;;;6.60;99.90;;;;;;6214120;23;20020;-81
2022/02/11 11:09:29;;;;;;;16.90;3.53;;;6.60;99.90;;;;;;6235773;23;20091;-84
2022/02/11 11:12:04;;;;;;;14.40;3.22;;;6.60;99.90;;;;;;6212968;23;20056;-81
2022/02/11 11:14:30;;;;;;;19.20;3.77;;;6.70;99.90;;;;;;6212172;23;20063;-83
2022/02/11 11:17:01;;;;;;;15.20;3.27;;;6.70;99.90;;;;;;6211448;23;20074;-88
2022/02/11 11:19:33;;;;;;;12.95;3.30;;;6.80;99.90;;;;;;6211779;23;20453;-86
2022/02/11 11:22:14;;;;;;;12.30;2.67;;;6.70;99.90;;;;;;6212141;23;20461;-86
2022/02/11 11:24:59;;;;;;;15.63;3.55;;;6.80;99.90;;;;;;6237666;23;20051;-80
2022/02/11 11:27:44;;;;;;;15.40;3.13;;;6.70;99.90;;;;;;6236794;23;20105;-86
2022/02/11 11:30:23;;;;;;;14.18;3.22;;;6.70;99.90;;;;;;6234365;23;20020;-85
2022/02/11 11:33:04;;;;;;;18.20;4.53;;;6.70;99.90;;;;;;6210021;23;20391;-83
2022/02/11 11:35:38;;;;;;;12.20;3.47;;;6.70;99.90;;;;;;6210855;23;20251;-81
2022/02/11 11:38:13;;;;;;;15.75;3.22;;;6.70;99.90;;;;;;6212548;23;20407;-81
2022/02/11 11:41:10;;;;;;;13.98;3.30;;;6.60;99.90;;;;;;6211242;23;20115;-82
2022/02/11 11:43:40;;;;;;;17.03;3.60;;;6.60;99.90;;;;;;6198941;23;20020;-83
2022/02/11 11:46:27;;;;;;;14.65;3.38;;;6.60;99.90;;;;;;6213213;23;20016;-77
2022/02/11 11:48:59;;;;;;;15.27;3.47;;;6.70;99.90;;;;;;6213438;23;20123;-83
2022/02/11 11:51:28;;;;;;;12.88;3.15;;;6.70;99.90;;;;;;6239214;23;20078;-82
2022/02/11 11:54:15;;;;;;;17.65;4.00;;;6.70;99.90;;;;;;6239343;23;20012;-80
2022/02/11 11:56:44;;;;;;;12.23;3.30;;;6.70;99.90;;;;;;6213081;23;20019;-82
2022/02/11 11:59:15;;;;;;;18.35;3.50;;;6.70;99.90;;;;;;6235986;23;20081;-82
2022/02/11 12:01:56;;;;;;;18.63;3.50;;;6.70;99.90;;;;;;6212966;23;20654;-82
2022/02/11 12:04:26;;;;;;;14.90;3.75;;;6.60;99.90;;;;;;6237958;23;20020;-83
2022/02/11 12:07:04;;;;;;;16.40;4.10;;;6.70;99.90;;;;;;6214259;23;20027;-82
2022/02/11 12:09:31;;;;;;;15.47;3.37;;;6.60;99.90;;;;;;6212921;23;20056;-85
2022/02/11 12:12:03;;;;;;;17.80;4.10;;;6.60;99.90;;;;;;6213500;23;20016;-82
2022/02/11 12:14:31;;;;;;;13.17;3.60;;;6.60;99.90;;;;;;6213452;23;20027;-82
2022/02/11 12:16:58;;;;;;;18.13;3.60;;;6.60;99.90;;;;;;6238837;23;20109;-82
2022/02/11 12:19:25;;;;;;;12.80;2.73;;;6.60;99.90;;;;;;6213261;23;20245;-82
2022/02/11 12:21:51;;;;;;;14.63;3.30;;;6.60;99.90;;;;;;6212580;23;20457;-81
2022/02/11 12:27:20;;;;;;;15.43;2.90;;;6.60;99.90;;;;;;6238933;23;20025;-82
2022/02/11 12:29:56;;;;;;;14.77;2.45;;;6.50;99.90;;;;;;6190204;23;20012;-81
2022/02/11 12:32:30;;;;;;;14.53;2.90;;;6.40;99.90;;;;;;6235846;23;20345;-81
2022/02/11 12:34:59;;;;;;;12.40;2.53;;;6.40;99.90;;;;;;6213668;23;20657;-81
2022/02/11 12:37:30;;;;;;;15.02;3.10;;;6.40;99.90;;;;;;6211559;23;20016;-82
2022/02/11 12:40:01;;;;;;;15.37;2.83;;;6.40;99.90;;;;;;6211564;23;20020;-82
2022/02/11 12:43:11;;;;;;;14.53;2.77;;;6.40;99.90;;;;;;6212900;23;20327;-81
2022/02/11 12:46:14;;;;;;;11.90;2.15;;;6.40;99.90;;;;;;6238614;23;20307;-81
2022/02/11 12:48:42;;;;;;;13.23;2.00;;;6.40;99.90;;;;;;6233386;23;20016;-82
2022/02/11 12:51:09;;;;;;;10.35;2.75;;;6.40;99.90;;;;;;6212738;23;20082;-81
2022/02/11 12:53:35;;;;;;;12.73;2.50;;;6.40;99.90;;;;;;6213067;23;20024;-84
2022/02/11 12:56:05;;;;;;;12.35;2.70;;;6.40;99.90;;;;;;6236581;23;20078;-82
2022/02/11 12:58:33;;;;;;;10.48;2.47;;;6.40;99.90;;;;;;6211399;23;20020;-81
2022/02/11 13:00:59;;;;;;;11.95;2.60;;;6.50;99.90;;;;;;6213310;23;20471;-80
2022/02/11 13:03:26;;;;;;;11.85;2.53;;;6.50;99.90;;;;;;6213097;23;20020;-82
2022/02/11 13:05:52;;;;;;;11.15;2.30;;;6.50;99.70;;;;;;6211159;23;20019;-81
2022/02/11 13:08:20;;;;;;;11.13;2.03;;;6.50;99.20;;;;;;6213074;23;20020;-81
2022/02/11 13:10:53;;;;;;;12.30;2.28;;;6.40;99.40;;;;;;6212193;23;20027;-81
2022/02/11 13:13:20;;;;;;;13.75;2.95;;;6.40;99.50;;;;;;6210899;23;20503;-83
2022/02/11 13:15:46;;;;;;;11.45;2.22;;;6.50;97.80;;;;;;6212572;23;20016;-82
2022/02/11 13:18:16;;;;;;;9.85;2.75;;;6.60;98.00;;;;;;6212827;23;20349;-82
2022/02/11 13:20:53;;;;;;;11.23;2.87;;;6.80;98.30;;;;;;6238056;23;20388;-82
2022/02/11 13:23:25;;;;;;;12.73;2.67;;;7.00;96.80;;;;;;6237538;23;20326;-81
2022/02/11 13:25:52;;;;;;;11.48;2.25;;;7.10;95.30;;;;;;6212685;23;20023;-81
2022/02/11 13:28:20;;;;;;;8.50;1.50;;;7.20;95.50;;;;;;6237201;23;20460;-81
2022/02/11 13:30:54;;;;;;;11.73;1.83;;;7.20;95.80;;;;;;6212974;23;20020;-82
2022/02/11 13:33:30;;;;;;;10.82;2.03;;;7.20;94.50;;;;;;6213006;23;20350;-81
2022/02/11 13:36:01;;;;;;;12.98;1.77;;;7.10;92.30;;;;;;6211680;23;20453;-81
2022/02/11 13:38:41;;;;;;;11.30;1.90;;;7.00;92.40;;;;;;6212136;23;20493;-81
2022/02/11 13:41:10;;;;;;;10.57;2.05;;;6.90;94.10;;;;;;6215964;22;20515;-81
2022/02/11 13:43:52;;;;;;;9.02;1.63;;;6.90;93.50;;;;;;6216214;22;20022;-81
2022/02/11 13:46:30;;;;;;;9.77;2.10;;;6.90;94.90;;;;;;6243025;22;20015;-80
2022/02/11 13:49:06;;;;;;;11.10;2.13;;;6.80;95.30;;;;;;6216210;22;20016;-81
2022/02/11 13:51:35;;;;;;;9.32;1.90;;;6.80;94.90;;;;;;6242718;22;20440;-82
2022/02/11 13:54:15;;;;;;;8.67;1.87;;;6.80;93.80;;;;;;6239314;22;20456;-83
2022/02/11 13:56:50;;;;;;;8.10;2.08;;;6.70;93.70;;;;;;6240158;22;20049;-81
2022/02/11 13:59:27;;;;;;;9.70;2.22;;;6.80;94.00;;;;;;6190423;22;20023;-81
2022/02/11 14:02:03;;;;;;;12.23;2.35;;;6.80;94.20;;;;;;6214157;22;20047;-81
2022/02/11 14:04:33;;;;;;;12.60;2.58;;;6.70;95.70;;;;;;6215797;22;20096;-80
2022/02/11 14:07:00;;;;;;;10.52;2.47;;;6.70;96.20;;;;;;6192882;22;20103;-81
2022/02/11 14:09:31;;;;;;;10.63;1.92;;;6.70;96.30;;;;;;6215525;22;20468;-81
2022/02/11 14:11:59;;;;;;;10.00;2.30;;;6.70;96.30;;;;;;6216882;22;20354;-81
2022/02/11 14:14:25;;;;;;;12.07;2.40;;;6.70;96.90;;;;;;6218162;22;20414;-82
2022/02/11 14:16:56;;;;;;;13.73;3.05;;;6.70;96.70;;;;;;6191579;22;20224;-82
2022/02/11 14:19:24;;;;;;;;;;;6.80;96.70;;;;;;6243486;22;20099;-82
2022/02/11 14:22:01;;;;;;;15.20;3.45;;;6.80;97.20;;;;;;6216270;22;19923;-81
2022/02/11 14:24:29;;;;;;;11.32;2.47;;;6.80;97.20;;;;;;6242795;22;20051;-81
2022/02/11 14:26:55;;;;;;;13.15;3.15;;;6.80;97.60;;;;;;6215060;22;20023;-81
2022/02/11 14:29:22;;;;;;;11.80;2.58;;;6.70;97.00;;;;;;6215000;22;20011;-81
2022/02/11 14:31:49;;;;;;;12.95;2.80;;;6.80;95.20;;;;;;6211781;22;20779;-81
2022/02/11 14:34:15;;;;;;;9.52;2.20;;;6.80;96.60;;;;;;6211591;22;20051;-81
2022/02/11 14:36:43;;;;;;;9.63;2.50;;;6.90;97.30;;;;;;6237166;22;20630;-81
2022/02/11 14:39:14;;;;;;;11.97;2.47;;;7.00;95.60;;;;;;6212120;22;20016;-80
2022/02/11 14:41:48;;;;;;;8.35;1.60;;;7.10;95.40;;;;;;6216681;22;20023;-81
2022/02/11 14:44:21;;;;;;;7.00;1.35;;;7.20;94.60;;;;;;6242460;22;20023;-81
2022/02/11 14:46:49;;;;;;;11.75;2.35;;;7.20;92.50;;;;;;6193342;22;20020;-81
2022/02/11 14:49:19;;;;;;;10.55;2.00;;;7.30;93.00;;;;;;6217437;22;20024;-81
2022/02/11 14:51:54;;;;;;;10.68;2.83;;;7.20;92.30;;;;;;6216827;22;20102;-82
2022/02/11 14:54:20;;;;;;;10.27;2.40;;;7.20;93.30;;;;;;6242718;22;20103;-80
2022/02/11 14:56:48;;;;;;;11.75;2.53;;;7.10;93.20;;;;;;6217682;22;20171;-82
2022/02/11 14:59:15;;;;;;;6.83;1.73;;;7.10;92.80;;;;;;6217565;22;20020;-80
2022/02/11 15:01:43;;;;;;;14.85;3.38;;;7.10;92.70;;;;;;6240510;22;20508;-81
2022/02/11 15:04:09;;;;;;;14.07;2.67;;;6.90;92.90;;;;;;6216527;22;20086;-80
2022/02/11 15:06:35;;;;;;;12.50;2.78;;;6.80;93.90;;;;;;6191378;22;20068;-81
2022/02/11 15:09:02;;;;;;;9.60;1.90;;;6.70;94.80;;;;;;6216493;22;20456;-82
2022/02/11 15:11:29;;;;;;;13.52;2.42;;;6.70;95.60;;;;;;6240991;22;20122;-81
2022/02/11 15:13:55;;;;;;;15.70;4.03;;;6.70;96.30;;;;;;6240044;22;20510;-82
2022/02/11 15:16:24;;;;;;;12.97;2.87;;;6.70;96.60;;;;;;6191851;22;20020;-82
2022/02/11 15:18:50;;;;;;;10.57;2.27;;;6.70;96.80;;;;;;6166914;22;20022;-82
2022/02/11 15:21:18;;;;;;;12.38;2.78;;;6.70;97.10;;;;;;6215395;22;20019;-81
2022/02/11 15:23:47;;;;;;;12.63;2.42;;;6.70;95.70;;;;;;6216814;22;20080;-82
2022/02/11 15:26:15;;;;;;;14.63;2.83;;;6.60;95.60;;;;;;6191952;22;20027;-80
2022/02/11 15:28:41;;;;;;;14.07;3.20;;;6.50;96.50;;;;;;6216984;22;20081;-80
2022/02/11 15:31:13;;;;;;;13.27;4.50;;;6.40;96.90;;;;;;6215033;22;20012;-78
2022/02/11 15:33:41;;;;;;;12.02;2.03;;;6.40;97.50;;;;;;6218301;22;20020;-81
2022/02/11 15:36:09;;;;;;;14.63;2.10;;;6.40;96.80;;;;;;6217580;22;20019;-80
2022/02/11 15:38:35;;;;;;;12.32;2.63;;;6.30;96.70;;;;;;6218454;22;20045;-81
2022/02/11 15:41:01;;;;;;;12.73;2.37;;;6.40;96.80;;;;;;6212858;23;20017;-80
2022/02/11 15:43:30;;;;;;;11.25;2.75;;;6.30;96.70;;;;;;6239645;23;20016;-82
2022/02/11 15:45:58;;;;;;;12.85;2.50;;;6.30;96.90;;;;;;6213400;23;20441;-81
2022/02/11 15:48:24;;;;;;;11.60;2.35;;;6.20;97.10;;;;;;6214672;23;20668;-81
2022/02/11 15:50:50;;;;;;;9.57;2.20;;;6.20;97.50;;;;;;6214951;23;20085;-81
2022/02/11 15:53:17;;;;;;;9.37;2.67;;;6.10;98.00;;;;;;6188663;23;20024;-81
2022/02/11 15:55:43;;;;;;;11.33;2.43;;;6.10;98.00;;;;;;6214399;23;20091;-81
2022/02/11 15:58:09;;;;;;;12.20;2.60;;;6.00;97.90;;;;;;6213145;23;20031;-81
2022/02/11 16:00:37;;;;;;;11.18;2.28;;;5.90;97.60;;;;;;6189178;23;20024;-81
2022/02/11 16:03:04;;;;;;;12.03;3.07;;;5.80;98.20;;;;;;6239077;23;20020;-81
2022/02/11 16:05:30;;;;;;;12.13;2.60;;;5.70;98.60;;;;;;6189167;23;20028;-81
2022/02/11 16:07:56;;;;;;;14.50;3.20;;;5.70;98.30;;;;;;6185426;23;20020;-81
2022/02/11 16:10:24;;;;;;;10.23;2.97;;;5.60;98.60;;;;;;6211450;23;20024;-81
2022/02/11 16:12:54;;;;;;;10.07;2.73;;;5.60;99.10;;;;;;6212101;23;20020;-81
2022/02/11 16:15:23;;;;;;;13.93;3.10;;;5.60;99.50;;;;;;6212030;23;20078;-82
2022/02/11 16:18:03;;;;;;;12.43;3.63;;;5.40;99.70;;;;;;6236506;23;20060;-82
2022/02/11 16:20:34;;;;;;;13.10;3.33;;;5.40;99.90;;;;;;6234571;23;20020;-82
2022/02/11 16:23:05;;;;;;;12.63;3.05;;;5.30;99.90;;;;;;6231742;23;20016;-81
2022/02/11 16:25:35;;;;;;;11.90;2.97;;;5.20;99.90;;;;;;6204640;23;20451;-82
2022/02/11 16:28:04;;;;;;;13.75;2.78;;;5.20;99.90;;;;;;6206101;23;20016;-81
2022/02/11 16:30:30;;;;;;;13.33;3.63;;;5.10;99.90;;;;;;6234900;23;20024;-81
2022/02/11 16:32:57;;;;;;;10.03;2.93;;;5.00;99.90;;;;;;6189113;23;20103;-82
2022/02/11 16:35:26;;;;;;;8.77;2.70;;;4.90;99.90;;;;;;6213278;23;20095;-81
2022/02/11 16:37:52;;;;;;;11.70;3.00;;;4.90;99.90;;;;;;6212610;23;20023;-81
2022/02/11 16:40:18;;;;;;;14.50;3.53;;;4.80;99.90;;;;;;6214883;22;20012;-81
2022/02/11 16:42:45;;;;;;;12.27;4.20;;;4.70;99.90;;;;;;6189936;22;20998;-81
2022/02/11 16:45:11;;;;;;;14.83;4.37;;;4.70;99.90;;;;;;6211323;22;20015;-82
2022/02/11 16:47:38;;;;;;;12.57;2.90;;;4.60;99.90;;;;;;6237794;22;20022;-81
2022/02/11 16:50:06;;;;;;;10.43;2.80;;;4.60;99.90;;;;;;6217756;22;20023;-82